createdAt,value
2022-07-29T00:01:19.553Z,2.42
2022-07-29T00:03:48.085Z,2.70
2022-07-29T00:06:16.255Z,2.10
2022-07-29T00:08:43.741Z,2.53
2022-07-29T00:11:11.412Z,2.70
2022-07-29T00:13:38.935Z,2.65
2022-07-29T00:16:06.364Z,2.03
2022-07-29T00:18:34.000Z,2.62
2022-07-29T00:21:01.372Z,2.75
2022-07-29T00:23:29.834Z,2.50
2022-07-29T00:25:58.272Z,2.70
2022-07-29T00:28:25.652Z,2.45
2022-07-29T00:30:53.008Z,2.47
2022-07-29T00:33:20.703Z,2.37
2022-07-29T00:35:48.767Z,2.58
2022-07-29T00:38:18.465Z,2.55
2022-07-29T00:40:46.834Z,2.37
2022-07-29T00:43:15.243Z,2.45
2022-07-29T00:45:43.363Z,2.62
2022-07-29T00:48:11.455Z,2.67
2022-07-29T00:50:39.072Z,2.62
2022-07-29T00:53:07.960Z,2.20
2022-07-29T00:55:36.361Z,2.60
2022-07-29T00:58:04.012Z,2.45
2022-07-29T01:00:31.832Z,2.40
2022-07-29T01:02:59.591Z,2.40
2022-07-29T01:05:50.160Z,2.45
2022-07-29T01:08:17.155Z,2.90
2022-07-29T01:10:45.110Z,2.47
2022-07-29T01:13:13.055Z,2.92
2022-07-29T01:15:49.239Z,2.70
2022-07-29T01:18:40.619Z,3.00
2022-07-29T01:21:36.157Z,2.53
2022-07-29T01:24:17.288Z,3.03
2022-07-29T01:26:50.467Z,2.45
2022-07-29T01:29:42.848Z,2.33
2022-07-29T01:32:21.568Z,2.50
2022-07-29T01:35:14.292Z,2.97
2022-07-29T01:37:51.339Z,2.30
2022-07-29T01:40:25.776Z,2.70
2022-07-29T01:42:56.195Z,2.40
2022-07-29T01:45:38.410Z,2.85
2022-07-29T01:48:25.310Z,2.87
2022-07-29T01:51:13.976Z,2.60
2022-07-29T01:54:06.410Z,2.65
2022-07-29T01:56:34.727Z,2.50
2022-07-29T01:59:04.433Z,2.67
2022-07-29T02:01:34.155Z,2.28
2022-07-29T02:04:04.896Z,2.83
2022-07-29T02:06:33.819Z,2.75
2022-07-29T02:09:02.233Z,2.97
2022-07-29T02:11:32.279Z,3.22
2022-07-29T02:14:01.404Z,2.85
2022-07-29T02:16:31.186Z,3.03
2022-07-29T02:18:59.353Z,3.22
2022-07-29T02:21:28.370Z,2.90
2022-07-29T02:23:57.307Z,2.80
2022-07-29T02:26:25.621Z,2.70
2022-07-29T02:28:55.420Z,2.70
2022-07-29T02:31:25.676Z,2.60
2022-07-29T02:33:54.074Z,2.97
2022-07-29T02:36:23.154Z,3.03
2022-07-29T02:38:51.406Z,3.10
2022-07-29T02:41:25.329Z,3.28
2022-07-29T02:43:56.261Z,2.75
2022-07-29T02:46:36.064Z,3.10
2022-07-29T02:49:22.130Z,3.17
2022-07-29T02:51:56.312Z,3.50
2022-07-29T02:54:36.773Z,3.00
2022-07-29T02:57:10.704Z,3.33
2022-07-29T02:59:39.322Z,3.25
2022-07-29T03:02:08.347Z,2.62
2022-07-29T03:04:36.384Z,2.90
2022-07-29T03:07:04.798Z,2.97
2022-07-29T03:09:32.780Z,3.17
2022-07-29T03:12:00.828Z,3.00
2022-07-29T03:14:28.312Z,3.20
2022-07-29T03:16:56.264Z,2.80
2022-07-29T03:19:23.797Z,2.97
2022-07-29T03:21:51.171Z,3.00
2022-07-29T03:24:45.157Z,3.00
2022-07-29T03:27:14.718Z,3.12
2022-07-29T03:29:43.707Z,2.87
2022-07-29T03:32:17.422Z,3.40
2022-07-29T03:34:51.559Z,2.83
2022-07-29T03:37:18.915Z,3.28
2022-07-29T03:39:47.228Z,2.90
2022-07-29T03:42:16.410Z,3.35
2022-07-29T03:44:45.607Z,3.17
2022-07-29T03:47:14.188Z,3.00
2022-07-29T03:49:41.999Z,2.97
2022-07-29T03:52:10.037Z,3.33
2022-07-29T03:54:37.563Z,2.87
2022-07-29T03:57:06.903Z,3.33
2022-07-29T03:59:37.297Z,3.05
2022-07-29T04:02:06.318Z,3.30
2022-07-29T04:04:35.611Z,3.40
2022-07-29T04:07:03.351Z,2.75
2022-07-29T04:09:31.113Z,3.20
2022-07-29T04:12:03.169Z,2.67
2022-07-29T04:14:33.761Z,3.08
2022-07-29T04:17:02.199Z,2.80
2022-07-29T04:19:29.538Z,3.00
2022-07-29T04:21:57.419Z,3.42
2022-07-29T04:24:25.062Z,3.35
2022-07-29T04:26:53.275Z,2.67
2022-07-29T04:29:20.921Z,3.08
2022-07-29T04:31:48.667Z,3.10
2022-07-29T04:34:16.377Z,3.08
2022-07-29T04:36:44.218Z,3.15
2022-07-29T04:39:11.885Z,3.00
2022-07-29T04:41:39.214Z,3.33
2022-07-29T04:44:07.129Z,3.17
2022-07-29T04:46:35.700Z,3.03
2022-07-29T04:49:04.309Z,2.80
2022-07-29T04:51:31.921Z,3.20
2022-07-29T04:53:59.711Z,2.87
2022-07-29T04:56:27.364Z,3.00
2022-07-29T04:58:54.738Z,3.00
2022-07-29T05:01:22.405Z,3.00
2022-07-29T05:03:49.789Z,4.65
2022-07-29T05:06:17.238Z,3.42
2022-07-29T05:08:44.840Z,2.90
2022-07-29T05:11:14.960Z,3.05
2022-07-29T05:13:46.025Z,3.47
2022-07-29T05:16:15.115Z,2.90
2022-07-29T05:18:43.174Z,3.20
2022-07-29T05:21:10.918Z,2.80
2022-07-29T05:23:38.496Z,3.03
2022-07-29T05:26:05.907Z,3.37
2022-07-29T05:28:36.662Z,3.28
2022-07-29T05:31:04.127Z,3.03
2022-07-29T05:33:35.439Z,3.50
2022-07-29T05:36:08.431Z,3.33
2022-07-29T05:38:36.935Z,3.15
2022-07-29T05:41:06.081Z,3.30
2022-07-29T05:43:33.852Z,3.40
2022-07-29T05:46:01.355Z,3.50
2022-07-29T05:48:29.081Z,2.72
2022-07-29T05:50:56.526Z,3.80
2022-07-29T05:53:24.033Z,3.40
2022-07-29T05:55:52.630Z,2.87
2022-07-29T05:58:20.440Z,3.28
2022-07-29T06:00:48.087Z,3.17
2022-07-29T06:03:15.911Z,3.40
2022-07-29T06:05:43.327Z,3.67
2022-07-29T06:08:10.749Z,3.85
2022-07-29T06:10:38.827Z,3.20
2022-07-29T06:13:06.267Z,3.33
2022-07-29T06:15:34.350Z,3.30
2022-07-29T06:18:02.422Z,3.22
2022-07-29T06:20:31.397Z,3.78
2022-07-29T06:22:59.197Z,2.97
2022-07-29T06:25:30.095Z,3.42
2022-07-29T06:27:58.396Z,3.12
2022-07-29T06:30:25.946Z,3.30
2022-07-29T06:32:53.697Z,3.10
2022-07-29T06:35:39.237Z,3.53
2022-07-29T06:38:14.945Z,3.12
2022-07-29T06:41:06.946Z,3.10
2022-07-29T06:43:52.465Z,3.12
2022-07-29T06:46:23.032Z,3.17
2022-07-29T06:48:52.542Z,3.20
2022-07-29T06:51:23.038Z,3.47
2022-07-29T06:53:59.631Z,3.60
2022-07-29T06:56:38.145Z,3.40
2022-07-29T06:59:08.687Z,2.92
2022-07-29T07:01:40.397Z,3.03
2022-07-29T07:04:09.641Z,3.40
2022-07-29T07:06:37.363Z,3.33
2022-07-29T07:09:05.107Z,2.80
2022-07-29T07:11:32.710Z,3.37
2022-07-29T07:14:03.572Z,3.05
2022-07-29T07:16:32.486Z,3.40
2022-07-29T07:19:00.754Z,3.30
2022-07-29T07:21:30.120Z,3.40
2022-07-29T07:23:58.569Z,3.47
2022-07-29T07:26:26.903Z,3.37
2022-07-29T07:28:54.266Z,3.33
2022-07-29T07:31:21.795Z,3.37
2022-07-29T07:33:49.490Z,3.47
2022-07-29T07:36:16.852Z,4.00
2022-07-29T07:38:44.192Z,3.35
2022-07-29T07:41:11.889Z,4.20
2022-07-29T07:43:39.249Z,3.65
2022-07-29T07:46:06.902Z,3.28
2022-07-29T07:48:35.765Z,3.55
2022-07-29T07:51:03.183Z,3.50
2022-07-29T07:53:33.867Z,3.12
2022-07-29T07:56:17.242Z,3.42
2022-07-29T07:58:44.597Z,4.12
2022-07-29T08:01:12.344Z,3.42
2022-07-29T08:03:40.060Z,3.70
2022-07-29T08:06:08.469Z,3.80
2022-07-29T08:08:35.968Z,3.97
2022-07-29T08:11:09.175Z,3.87
2022-07-29T08:13:38.569Z,3.85
2022-07-29T08:16:13.978Z,3.70
2022-07-29T08:18:43.213Z,3.83
2022-07-29T08:21:11.037Z,3.67
2022-07-29T08:23:51.487Z,3.25
2022-07-29T08:26:24.560Z,3.70
2022-07-29T08:28:52.034Z,3.60
2022-07-29T08:31:22.449Z,3.53
2022-07-29T08:33:50.134Z,3.62
2022-07-29T08:36:17.459Z,3.42
2022-07-29T08:38:44.831Z,3.62
2022-07-29T08:41:12.460Z,3.58
2022-07-29T08:43:41.936Z,3.28
2022-07-29T08:46:09.455Z,3.70
2022-07-29T08:48:37.655Z,3.70
2022-07-29T08:51:08.548Z,3.47
2022-07-29T08:53:39.081Z,3.30
2022-07-29T08:56:07.064Z,3.42
2022-07-29T08:58:36.734Z,3.40
2022-07-29T09:03:37.614Z,3.67
2022-07-29T09:06:05.710Z,3.83
2022-07-29T09:08:34.102Z,3.70
2022-07-29T09:11:05.290Z,3.12
2022-07-29T09:13:33.426Z,3.35
2022-07-29T09:16:04.504Z,3.65
2022-07-29T09:18:34.868Z,3.55
2022-07-29T09:21:21.801Z,3.28
2022-07-29T09:24:03.851Z,3.90
2022-07-29T09:26:32.456Z,3.22
2022-07-29T09:29:00.408Z,3.42
2022-07-29T09:31:35.869Z,3.15
2022-07-29T09:34:04.643Z,3.95
2022-07-29T09:36:32.070Z,3.42
2022-07-29T09:39:00.997Z,3.30
2022-07-29T09:41:28.798Z,2.53
2022-07-29T09:44:00.189Z,3.22
2022-07-29T09:46:27.752Z,3.15
2022-07-29T09:49:13.276Z,2.67
2022-07-29T09:51:41.320Z,2.70
2022-07-29T09:54:25.427Z,3.10
2022-07-29T09:56:53.716Z,2.90
2022-07-29T09:59:23.309Z,3.20
2022-07-29T10:01:51.108Z,3.78
2022-07-29T10:04:19.414Z,2.80
2022-07-29T10:07:04.426Z,3.22
2022-07-29T10:09:33.524Z,2.62
2022-07-29T10:12:27.332Z,2.85
2022-07-29T10:14:55.425Z,2.40
2022-07-29T10:17:23.115Z,2.17
2022-07-29T10:19:50.543Z,2.87
2022-07-29T10:22:43.246Z,2.65
2022-07-29T10:25:05.656Z,2.78
2022-07-29T10:27:33.587Z,2.22
2022-07-29T10:30:02.588Z,2.53
2022-07-29T10:32:37.634Z,2.70
2022-07-29T10:35:20.279Z,2.53
2022-07-29T10:37:56.960Z,2.47
2022-07-29T10:40:51.043Z,2.70
2022-07-29T10:43:31.862Z,3.08
2022-07-29T10:46:01.243Z,2.58
2022-07-29T10:48:29.010Z,2.80
2022-07-29T10:51:01.411Z,2.95
2022-07-29T10:53:49.907Z,2.45
2022-07-29T10:56:28.521Z,2.58
2022-07-29T10:59:21.475Z,3.00
2022-07-29T11:01:54.406Z,2.92
2022-07-29T11:04:45.349Z,2.65
2022-07-29T11:07:15.495Z,2.65
2022-07-29T11:09:46.484Z,2.70
2022-07-29T11:12:36.892Z,3.40
2022-07-29T11:15:10.004Z,2.87
2022-07-29T11:17:59.635Z,3.03
2022-07-29T11:20:50.816Z,2.67
2022-07-29T11:23:25.796Z,3.22
2022-07-29T11:26:27.447Z,3.15
2022-07-29T11:29:04.101Z,2.75
2022-07-29T11:31:43.867Z,2.80
2022-07-29T11:34:30.266Z,2.85
2022-07-29T11:37:15.951Z,2.80
2022-07-29T11:39:54.203Z,3.00
2022-07-29T11:42:28.476Z,3.15
2022-07-29T11:45:08.394Z,2.67
2022-07-29T11:47:54.503Z,2.70
2022-07-29T11:50:33.414Z,3.35
2022-07-29T11:53:08.743Z,3.10
2022-07-29T11:55:38.829Z,3.05
2022-07-29T12:01:18.314Z,2.85
2022-07-29T12:03:46.038Z,2.95
2022-07-29T12:06:15.014Z,3.20
2022-07-29T12:07:03.965Z,3.20
2022-07-29T12:08:43.672Z,2.97
2022-07-29T12:11:22.671Z,2.70
2022-07-29T12:13:54.069Z,2.67
2022-07-29T12:16:27.994Z,2.72
2022-07-29T12:19:02.086Z,2.97
2022-07-29T12:21:59.436Z,2.65
2022-07-29T12:24:27.521Z,2.97
2022-07-29T12:27:00.254Z,3.00
2022-07-29T12:29:35.253Z,2.62
2022-07-29T12:32:06.188Z,2.62
2022-07-29T12:34:42.181Z,2.67
2022-07-29T12:37:10.571Z,2.92
2022-07-29T12:39:38.192Z,2.90
2022-07-29T12:42:14.850Z,2.92
2022-07-29T12:44:50.413Z,2.67
2022-07-29T12:47:19.436Z,2.78
2022-07-29T12:49:47.840Z,2.70
2022-07-29T12:52:32.947Z,2.78
2022-07-29T12:55:00.794Z,2.95
2022-07-29T12:57:28.576Z,2.50
2022-07-29T13:00:05.514Z,2.62
2022-07-29T13:02:33.190Z,2.50
2022-07-29T13:05:01.740Z,2.80
2022-07-29T13:07:54.675Z,2.45
2022-07-29T13:10:24.651Z,2.80
2022-07-29T13:13:10.424Z,2.40
2022-07-29T13:15:39.733Z,2.55
2022-07-29T13:18:30.404Z,2.50
2022-07-29T13:20:58.515Z,2.78
2022-07-29T13:23:25.854Z,2.90
2022-07-29T13:25:53.199Z,2.60
2022-07-29T13:28:22.455Z,2.72
2022-07-29T13:30:49.824Z,2.83
2022-07-29T13:33:17.196Z,2.60
2022-07-29T13:35:44.847Z,2.40
2022-07-29T13:38:12.536Z,2.50
2022-07-29T13:40:39.888Z,2.95
2022-07-29T13:43:10.551Z,2.55
2022-07-29T13:45:38.188Z,2.80
2022-07-29T13:48:07.224Z,2.67
2022-07-29T13:50:34.829Z,2.97
2022-07-29T13:53:02.172Z,2.67
2022-07-29T13:55:29.532Z,2.80
2022-07-29T13:57:57.104Z,3.08
2022-07-29T14:00:24.717Z,2.62
2022-07-29T14:02:52.313Z,3.03
2022-07-29T14:05:19.652Z,2.85
2022-07-29T14:07:47.015Z,2.65
2022-07-29T14:10:19.715Z,2.40
2022-07-29T14:12:47.468Z,3.03
2022-07-29T14:15:15.159Z,2.60
2022-07-29T14:17:42.487Z,2.70
2022-07-29T14:20:10.174Z,3.00
2022-07-29T14:22:42.382Z,2.90
2022-07-29T14:25:15.028Z,2.60
2022-07-29T14:27:44.262Z,2.67
2022-07-29T14:30:12.480Z,2.67
2022-07-29T14:32:40.031Z,2.55
2022-07-29T14:35:08.878Z,2.53
2022-07-29T14:37:40.239Z,2.47
2022-07-29T14:40:09.639Z,2.83
2022-07-29T14:42:38.440Z,2.50
2022-07-29T14:45:07.192Z,2.90
2022-07-29T14:47:35.652Z,2.87
2022-07-29T14:50:03.830Z,2.45
2022-07-29T14:52:31.188Z,2.87
2022-07-29T14:54:58.977Z,2.50
2022-07-29T14:57:26.391Z,2.75
2022-07-29T14:59:53.824Z,2.53
2022-07-29T15:02:21.617Z,2.50
2022-07-29T15:04:49.119Z,2.80
2022-07-29T15:07:16.849Z,2.90
2022-07-29T15:09:49.505Z,2.90
2022-07-29T15:12:17.780Z,2.60
2022-07-29T15:14:45.560Z,2.83
2022-07-29T15:17:12.978Z,2.97
2022-07-29T15:19:44.828Z,2.83
2022-07-29T15:22:12.779Z,2.40
2022-07-29T15:24:40.108Z,2.75
2022-07-29T15:27:07.468Z,2.67
2022-07-29T15:29:35.197Z,2.83
2022-07-29T15:32:03.048Z,3.20
2022-07-29T15:34:30.927Z,3.05
2022-07-29T15:36:58.536Z,2.72
2022-07-29T15:39:25.888Z,2.72
2022-07-29T15:41:53.468Z,2.85
2022-07-29T15:44:21.702Z,2.40
2022-07-29T15:47:05.018Z,2.65
2022-07-29T15:49:47.555Z,2.55
2022-07-29T15:52:25.787Z,2.30
2022-07-29T15:54:55.587Z,2.85
2022-07-29T15:57:23.663Z,2.65
2022-07-29T15:59:51.863Z,2.83
2022-07-29T16:02:19.647Z,2.70
2022-07-29T16:04:47.440Z,2.80
2022-07-29T16:07:15.544Z,2.67
2022-07-29T16:09:43.870Z,2.50
2022-07-29T16:12:15.293Z,2.58
2022-07-29T16:17:14.516Z,2.45
2022-07-29T16:19:43.388Z,2.72
2022-07-29T16:22:11.537Z,3.05
2022-07-29T16:24:39.140Z,2.70
2022-07-29T16:27:06.814Z,2.83
2022-07-29T16:29:34.466Z,2.53
2022-07-29T16:32:01.930Z,2.80
2022-07-29T16:34:29.656Z,2.80
2022-07-29T16:36:57.256Z,2.90
2022-07-29T16:39:24.694Z,2.97
2022-07-29T16:41:52.047Z,2.80
2022-07-29T16:44:19.726Z,3.25
2022-07-29T16:46:52.624Z,3.05
2022-07-29T16:49:23.694Z,3.03
2022-07-29T16:51:51.099Z,2.95
2022-07-29T16:54:18.465Z,2.90
2022-07-29T16:56:46.080Z,2.83
2022-07-29T16:59:13.470Z,3.10
2022-07-29T17:01:40.820Z,2.85
2022-07-29T17:04:08.596Z,3.28
2022-07-29T17:06:37.327Z,2.65
2022-07-29T17:09:05.843Z,2.62
2022-07-29T17:11:53.568Z,2.92
2022-07-29T17:14:27.660Z,2.97
2022-07-29T17:17:02.078Z,2.62
2022-07-29T17:19:32.432Z,3.25
2022-07-29T17:22:09.253Z,2.75
2022-07-29T17:24:39.038Z,3.17
2022-07-29T17:27:09.508Z,3.80
2022-07-29T17:29:38.603Z,2.85
2022-07-29T17:32:07.474Z,2.85
2022-07-29T17:34:39.970Z,3.10
2022-07-29T17:37:09.420Z,3.37
2022-07-29T17:39:40.599Z,3.08
2022-07-29T17:42:09.706Z,3.53
2022-07-29T17:44:37.915Z,3.22
2022-07-29T17:47:06.487Z,3.25
2022-07-29T17:49:36.309Z,4.10
2022-07-29T17:52:05.393Z,3.62
2022-07-29T17:54:32.807Z,3.60
2022-07-29T17:57:00.671Z,3.78
2022-07-29T17:59:28.567Z,3.60
2022-07-29T18:01:55.956Z,4.12
2022-07-29T18:04:23.718Z,3.70
2022-07-29T18:06:51.552Z,3.70
2022-07-29T18:09:18.909Z,3.92
2022-07-29T18:11:47.461Z,3.62
2022-07-29T18:14:14.967Z,3.55
2022-07-29T18:16:42.373Z,3.53
2022-07-29T18:19:10.095Z,3.47
2022-07-29T18:21:51.862Z,2.90
2022-07-29T18:24:27.461Z,2.85
2022-07-29T18:26:54.951Z,3.42
2022-07-29T18:29:22.570Z,2.80
2022-07-29T18:31:50.154Z,3.30
2022-07-29T18:34:17.671Z,3.80
2022-07-29T18:36:45.923Z,3.22
2022-07-29T18:39:20.308Z,3.33
2022-07-29T18:41:51.003Z,3.45
2022-07-29T18:44:22.016Z,3.42
2022-07-29T18:49:19.037Z,3.40
2022-07-29T18:51:46.960Z,3.58
2022-07-29T18:54:15.135Z,3.35
2022-07-29T18:56:42.571Z,3.30
2022-07-29T18:59:10.485Z,3.15
2022-07-29T19:01:38.211Z,3.80
2022-07-29T19:04:05.897Z,3.72
2022-07-29T19:06:33.236Z,3.50
2022-07-29T19:09:00.816Z,2.83
2022-07-29T19:11:28.183Z,3.40
2022-07-29T19:13:55.587Z,3.17
2022-07-29T19:16:23.485Z,3.42
2022-07-29T19:18:51.498Z,3.20
2022-07-29T19:21:19.303Z,3.22
2022-07-29T19:24:01.607Z,3.53
2022-07-29T19:26:36.522Z,2.90
2022-07-29T19:29:04.619Z,3.30
2022-07-29T19:31:32.055Z,2.80
2022-07-29T19:33:59.490Z,3.10
2022-07-29T19:36:27.335Z,2.92
2022-07-29T19:38:54.757Z,3.20
2022-07-29T19:41:22.140Z,3.20
2022-07-29T19:43:52.882Z,3.20
2022-07-29T19:46:21.517Z,3.45
2022-07-29T19:48:49.338Z,3.67
2022-07-29T19:51:17.498Z,3.20
2022-07-29T19:53:44.922Z,2.67
2022-07-29T19:56:12.453Z,3.00
2022-07-29T19:58:40.793Z,2.85
2022-07-29T20:01:10.497Z,3.33
2022-07-29T20:03:40.039Z,3.00
2022-07-29T20:06:07.888Z,3.03
2022-07-29T20:08:35.516Z,2.80
2022-07-29T20:11:03.363Z,3.28
2022-07-29T20:13:32.992Z,2.90
2022-07-29T20:16:01.101Z,3.05
2022-07-29T20:18:28.724Z,3.65
2022-07-29T20:20:57.456Z,2.80
2022-07-29T20:23:24.905Z,3.12
2022-07-29T20:25:52.656Z,2.70
2022-07-29T20:28:22.492Z,2.87
2022-07-29T20:30:49.873Z,3.10
2022-07-29T20:33:17.546Z,3.00
2022-07-29T20:35:44.975Z,3.17
2022-07-29T20:38:17.821Z,2.85
2022-07-29T20:40:46.026Z,3.15
2022-07-29T20:43:13.361Z,3.05
2022-07-29T20:45:40.673Z,2.80
2022-07-29T20:48:08.558Z,3.35
2022-07-29T20:50:36.139Z,2.90
2022-07-29T20:53:03.490Z,3.12
2022-07-29T20:55:32.027Z,3.37
2022-07-29T20:57:59.740Z,3.75
2022-07-29T21:00:28.426Z,3.15
2022-07-29T21:02:56.081Z,2.85
2022-07-29T21:05:23.546Z,3.00
2022-07-29T21:07:53.398Z,3.60
2022-07-29T21:10:24.201Z,3.10
2022-07-29T21:12:51.559Z,2.62
2022-07-29T21:15:20.776Z,2.95
2022-07-29T21:17:48.545Z,2.83
2022-07-29T21:20:17.253Z,3.30
2022-07-29T21:22:44.714Z,3.17
2022-07-29T21:25:12.612Z,3.00
2022-07-29T21:27:58.271Z,3.45
2022-07-29T21:30:25.906Z,3.35
2022-07-29T21:32:53.354Z,2.95
2022-07-29T21:36:01.917Z,3.08
2022-07-29T21:38:08.306Z,3.30
2022-07-29T21:40:35.755Z,3.53
2022-07-29T21:43:03.102Z,3.55
2022-07-29T21:45:30.728Z,3.15
2022-07-29T21:47:58.049Z,2.92
2022-07-29T21:50:25.448Z,2.90
2022-07-29T21:52:53.180Z,3.03
2022-07-29T21:55:20.604Z,2.80
2022-07-29T21:57:49.884Z,3.10
2022-07-29T22:00:17.503Z,3.15
2022-07-29T22:02:45.526Z,3.12
2022-07-29T22:05:13.390Z,3.17
2022-07-29T22:07:54.681Z,2.97
2022-07-29T22:10:25.903Z,2.92
2022-07-29T22:12:54.862Z,3.30
2022-07-29T22:15:22.757Z,3.03
2022-07-29T22:17:50.756Z,3.37
2022-07-29T22:20:18.373Z,3.05
2022-07-29T22:22:46.668Z,2.97
2022-07-29T22:25:14.407Z,3.30
2022-07-29T22:27:41.895Z,3.30
2022-07-29T22:30:09.775Z,3.12
2022-07-29T22:32:37.458Z,2.85
2022-07-29T22:35:05.158Z,3.10
2022-07-29T22:37:32.868Z,3.25
2022-07-29T22:40:00.464Z,2.90
2022-07-29T22:42:27.807Z,3.15
2022-07-29T22:44:55.157Z,3.15
2022-07-29T22:47:45.814Z,2.87
2022-07-29T22:50:10.057Z,3.30
2022-07-29T22:52:37.691Z,3.20
2022-07-29T22:55:05.423Z,3.40
2022-07-29T22:57:32.767Z,3.17
2022-07-29T23:00:02.236Z,2.95
2022-07-29T23:02:29.609Z,3.28
2022-07-29T23:04:57.185Z,3.17
2022-07-29T23:07:24.839Z,3.35
2022-07-29T23:09:52.265Z,3.22
2022-07-29T23:12:19.878Z,3.42
2022-07-29T23:14:47.512Z,3.65
2022-07-29T23:17:14.994Z,3.60
2022-07-29T23:19:42.386Z,3.12
2022-07-29T23:22:09.981Z,3.45
2022-07-29T23:24:37.348Z,3.10
2022-07-29T23:27:04.693Z,4.00
2022-07-29T23:29:36.591Z,3.47
2022-07-29T23:34:31.915Z,2.78
2022-07-29T23:36:59.426Z,3.28
2022-07-29T23:39:26.975Z,3.15
2022-07-29T23:41:54.579Z,3.45
2022-07-29T23:44:21.937Z,3.12
2022-07-29T23:46:49.319Z,3.45
2022-07-29T23:49:17.068Z,3.42
2022-07-29T23:51:44.425Z,3.80
2022-07-29T23:54:11.802Z,3.20
2022-07-29T23:56:39.403Z,3.40
2022-07-29T23:59:06.763Z,3.60
